createdAt,value
2022-11-07T00:01:18.735Z,15.90
2022-11-07T00:03:45.397Z,15.90
2022-11-07T00:06:12.170Z,15.90
2022-11-07T00:08:38.724Z,15.90
2022-11-07T00:11:06.130Z,15.90
2022-11-07T00:13:33.123Z,15.90
2022-11-07T00:16:06.159Z,15.80
2022-11-07T00:18:33.163Z,15.80
2022-11-07T00:21:07.799Z,15.80
2022-11-07T00:23:34.771Z,15.90
2022-11-07T00:26:05.479Z,15.90
2022-11-07T00:28:36.233Z,15.80
2022-11-07T00:31:03.486Z,15.90
2022-11-07T00:33:30.105Z,15.90
2022-11-07T00:35:56.641Z,15.90
2022-11-07T00:38:23.208Z,15.90
2022-11-07T00:41:00.610Z,15.90
2022-11-07T00:43:27.762Z,15.90
2022-11-07T00:45:54.321Z,15.90
2022-11-07T00:48:20.964Z,15.90
2022-11-07T00:50:48.055Z,15.90
2022-11-07T00:53:14.814Z,15.90
2022-11-07T00:55:41.664Z,15.90
2022-11-07T00:58:12.631Z,15.90
2022-11-07T01:00:40.287Z,15.90
2022-11-07T01:03:25.243Z,15.80
2022-11-07T01:06:00.101Z,15.90
2022-11-07T01:08:27.098Z,15.80
2022-11-07T01:10:54.248Z,15.80
2022-11-07T01:13:21.363Z,15.80
2022-11-07T01:15:47.968Z,15.90
2022-11-07T01:18:14.724Z,15.90
2022-11-07T01:20:41.261Z,15.80
2022-11-07T01:23:08.141Z,15.80
2022-11-07T01:25:37.948Z,15.80
2022-11-07T01:28:05.900Z,15.80
2022-11-07T01:30:32.794Z,15.80
2022-11-07T01:32:59.732Z,15.80
2022-11-07T01:35:26.289Z,15.80
2022-11-07T01:37:52.886Z,15.80
2022-11-07T01:40:19.507Z,15.80
2022-11-07T01:42:46.034Z,15.80
2022-11-07T01:45:21.984Z,15.80
2022-11-07T01:47:49.681Z,15.80
2022-11-07T01:50:16.613Z,15.80
2022-11-07T01:52:47.421Z,15.90
2022-11-07T01:55:22.366Z,15.80
2022-11-07T01:57:56.924Z,15.80
2022-11-07T02:00:24.656Z,15.80
2022-11-07T02:02:56.210Z,15.80
2022-11-07T02:05:37.927Z,15.80
2022-11-07T02:08:07.410Z,15.80
2022-11-07T02:10:37.990Z,15.80
2022-11-07T02:13:05.356Z,15.80
2022-11-07T02:15:34.620Z,15.80
2022-11-07T02:18:02.346Z,15.80
2022-11-07T02:20:29.277Z,15.80
2022-11-07T02:23:08.910Z,15.80
2022-11-07T02:25:36.912Z,15.80
2022-11-07T02:28:08.155Z,15.80
2022-11-07T02:30:34.911Z,15.80
2022-11-07T02:33:02.591Z,15.80
2022-11-07T02:35:43.635Z,15.80
2022-11-07T02:38:22.282Z,15.80
2022-11-07T02:40:56.894Z,15.80
2022-11-07T02:43:27.657Z,15.80
2022-11-07T02:45:55.465Z,15.80
2022-11-07T02:48:22.028Z,15.80
2022-11-07T02:50:48.914Z,15.80
2022-11-07T02:53:15.901Z,15.80
2022-11-07T02:55:42.771Z,15.80
2022-11-07T02:58:09.357Z,15.80
2022-11-07T03:00:35.929Z,15.80
2022-11-07T03:03:02.499Z,15.80
2022-11-07T03:05:29.088Z,15.80
2022-11-07T03:07:55.817Z,15.80
2022-11-07T03:10:22.393Z,15.80
2022-11-07T03:12:48.948Z,15.80
2022-11-07T03:15:15.580Z,15.80
2022-11-07T03:17:42.290Z,15.80
2022-11-07T03:20:09.694Z,15.80
2022-11-07T03:22:36.248Z,15.80
2022-11-07T03:25:03.018Z,15.80
2022-11-07T03:27:29.635Z,15.80
2022-11-07T03:29:56.259Z,15.80
2022-11-07T03:32:23.948Z,15.80
2022-11-07T03:34:50.547Z,15.70
2022-11-07T03:37:17.919Z,15.80
2022-11-07T03:39:45.524Z,15.80
2022-11-07T03:42:12.147Z,15.70
2022-11-07T03:44:38.741Z,15.70
2022-11-07T03:47:05.340Z,15.70
2022-11-07T03:49:31.928Z,15.70
2022-11-07T03:51:58.484Z,15.70
2022-11-07T03:54:25.029Z,15.70
2022-11-07T03:56:51.574Z,15.80
2022-11-07T03:59:18.170Z,15.70
2022-11-07T04:01:45.539Z,15.70
2022-11-07T04:04:14.916Z,15.70
2022-11-07T04:06:41.523Z,15.70
2022-11-07T04:09:08.316Z,15.70
2022-11-07T04:11:53.758Z,15.70
2022-11-07T04:14:38.953Z,15.70
2022-11-07T04:17:21.134Z,15.70
2022-11-07T04:19:52.801Z,15.70
2022-11-07T04:22:19.535Z,15.80
2022-11-07T04:24:46.988Z,15.70
2022-11-07T04:27:33.352Z,15.70
2022-11-07T04:30:18.707Z,15.70
2022-11-07T04:32:53.639Z,15.70
2022-11-07T04:35:22.708Z,15.70
2022-11-07T04:37:49.963Z,15.70
2022-11-07T04:40:18.012Z,15.70
2022-11-07T04:42:45.724Z,15.70
2022-11-07T04:45:13.060Z,15.70
2022-11-07T04:47:40.730Z,15.70
2022-11-07T04:50:09.885Z,15.70
2022-11-07T04:52:36.669Z,15.70
2022-11-07T04:55:03.428Z,15.70
2022-11-07T04:57:30.001Z,15.80
2022-11-07T04:59:56.582Z,15.70
2022-11-07T05:02:27.377Z,15.70
2022-11-07T05:04:54.154Z,15.70
2022-11-07T05:07:20.874Z,15.70
2022-11-07T05:09:47.626Z,15.70
2022-11-07T05:12:14.183Z,15.70
2022-11-07T05:14:40.794Z,15.70
2022-11-07T05:17:07.517Z,15.70
2022-11-07T05:19:34.097Z,15.70
2022-11-07T05:22:19.409Z,15.70
2022-11-07T05:24:46.026Z,15.70
2022-11-07T05:27:19.851Z,15.70
2022-11-07T05:29:46.855Z,15.70
2022-11-07T05:32:13.804Z,15.70
2022-11-07T05:34:40.644Z,15.70
2022-11-07T05:37:11.929Z,15.70
2022-11-07T05:39:38.985Z,15.70
2022-11-07T05:42:05.580Z,15.70
2022-11-07T05:44:32.270Z,15.80
2022-11-07T05:46:59.997Z,15.80
2022-11-07T05:49:26.750Z,15.70
2022-11-07T05:51:53.345Z,15.70
2022-11-07T05:54:20.075Z,15.70
2022-11-07T05:56:46.632Z,15.70
2022-11-07T05:59:13.739Z,15.70
2022-11-07T06:01:40.500Z,15.80
2022-11-07T06:04:07.779Z,15.70
2022-11-07T06:06:34.758Z,15.70
2022-11-07T06:09:01.623Z,15.70
2022-11-07T06:11:28.178Z,15.70
2022-11-07T06:13:54.989Z,15.70
2022-11-07T06:16:21.818Z,15.70
2022-11-07T06:18:48.896Z,15.70
2022-11-07T06:21:16.725Z,15.70
2022-11-07T06:23:43.554Z,15.70
2022-11-07T06:26:10.637Z,15.70
2022-11-07T06:28:37.567Z,15.70
2022-11-07T06:31:05.234Z,15.70
2022-11-07T06:33:32.562Z,15.70
2022-11-07T06:36:12.794Z,15.70
2022-11-07T06:38:40.183Z,15.60
2022-11-07T06:41:11.999Z,15.60
2022-11-07T06:43:39.573Z,15.70
2022-11-07T06:46:09.440Z,15.70
2022-11-07T06:48:36.351Z,15.70
2022-11-07T06:53:39.133Z,16.00
2022-11-07T06:56:08.071Z,16.10
2022-11-07T06:58:34.882Z,16.00
2022-11-07T07:01:05.760Z,16.00
2022-11-07T07:03:32.436Z,16.00
2022-11-07T07:06:03.727Z,16.00
2022-11-07T07:08:30.626Z,16.00
2022-11-07T07:11:01.469Z,16.00
2022-11-07T07:13:29.289Z,16.00
2022-11-07T07:15:57.513Z,16.00
2022-11-07T07:18:24.865Z,16.00
2022-11-07T07:20:52.620Z,16.00
2022-11-07T07:23:20.979Z,15.90
2022-11-07T07:25:48.300Z,15.90
2022-11-07T07:28:14.868Z,16.00
2022-11-07T07:30:41.438Z,15.90
2022-11-07T07:33:07.964Z,15.90
2022-11-07T07:35:34.511Z,15.90
2022-11-07T07:38:01.052Z,15.90
2022-11-07T07:40:27.716Z,16.00
2022-11-07T07:42:54.321Z,15.90
2022-11-07T07:45:20.865Z,15.90
2022-11-07T07:47:47.434Z,15.90
2022-11-07T07:50:14.713Z,15.90
2022-11-07T07:52:41.516Z,15.90
2022-11-07T07:55:09.285Z,15.90
2022-11-07T07:57:53.730Z,15.90
2022-11-07T08:00:20.287Z,15.90
2022-11-07T08:02:46.858Z,15.90
2022-11-07T08:05:14.995Z,16.00
2022-11-07T08:07:49.086Z,15.90
2022-11-07T08:10:40.120Z,15.90
2022-11-07T08:13:03.669Z,15.90
2022-11-07T08:15:30.216Z,15.90
2022-11-07T08:18:01.215Z,15.90
2022-11-07T08:20:27.957Z,15.90
2022-11-07T08:23:08.632Z,15.90
2022-11-07T08:25:39.442Z,15.90
2022-11-07T08:28:07.189Z,15.90
2022-11-07T08:30:34.373Z,15.90
2022-11-07T08:33:03.019Z,15.90
2022-11-07T08:35:30.637Z,15.90
2022-11-07T08:37:58.025Z,15.90
2022-11-07T08:40:24.738Z,15.90
2022-11-07T08:42:51.538Z,15.90
2022-11-07T08:45:18.362Z,15.90
2022-11-07T08:47:44.918Z,15.90
2022-11-07T08:50:11.505Z,15.90
2022-11-07T08:52:38.307Z,15.90
2022-11-07T08:55:05.370Z,15.90
2022-11-07T08:57:32.013Z,16.00
2022-11-07T08:59:58.625Z,16.00
2022-11-07T09:03:08.476Z,16.00
2022-11-07T09:05:11.714Z,16.00
2022-11-07T09:07:39.568Z,16.00
2022-11-07T09:10:06.603Z,16.00
2022-11-07T09:12:33.173Z,16.00
2022-11-07T09:14:59.751Z,16.00
2022-11-07T09:17:27.351Z,16.00
2022-11-07T09:19:53.881Z,16.00
2022-11-07T09:22:20.458Z,16.00
2022-11-07T09:24:47.003Z,16.00
2022-11-07T09:27:13.589Z,16.00
2022-11-07T09:29:40.293Z,16.00
2022-11-07T09:32:30.408Z,16.00
2022-11-07T09:34:58.245Z,16.00
2022-11-07T09:37:28.142Z,16.00
2022-11-07T09:39:54.794Z,16.00
2022-11-07T09:42:36.450Z,16.10
2022-11-07T09:45:03.462Z,16.00
2022-11-07T09:47:34.339Z,15.80
2022-11-07T09:50:03.961Z,16.70
2022-11-07T09:52:52.311Z,15.90
2022-11-07T09:55:32.764Z,15.90
2022-11-07T09:58:04.911Z,15.70
2022-11-07T10:00:32.136Z,15.60
2022-11-07T10:02:59.705Z,15.40
2022-11-07T10:05:32.938Z,15.40
2022-11-07T10:08:03.475Z,15.50
2022-11-07T10:10:44.434Z,15.70
2022-11-07T10:13:22.619Z,15.70
2022-11-07T10:16:08.820Z,15.80
2022-11-07T10:18:41.348Z,15.90
2022-11-07T10:21:38.487Z,15.90
2022-11-07T10:24:17.395Z,15.90
2022-11-07T10:26:44.779Z,15.90
2022-11-07T10:29:21.634Z,15.90
2022-11-07T10:31:51.999Z,15.90
2022-11-07T10:34:25.928Z,15.90
2022-11-07T10:36:52.483Z,15.90
2022-11-07T10:39:19.489Z,15.90
2022-11-07T10:41:47.691Z,16.00
2022-11-07T10:44:22.692Z,15.90
2022-11-07T10:46:53.224Z,15.70
2022-11-07T10:49:29.621Z,15.80
2022-11-07T10:52:07.611Z,15.70
2022-11-07T10:54:34.179Z,15.80
2022-11-07T10:57:22.606Z,15.90
2022-11-07T10:59:51.869Z,16.00
2022-11-07T11:02:30.061Z,16.00
2022-11-07T11:04:57.601Z,16.00
2022-11-07T11:07:42.032Z,16.10
2022-11-07T11:10:38.815Z,16.10
2022-11-07T11:13:06.715Z,16.10
2022-11-07T11:15:44.919Z,16.10
2022-11-07T11:18:17.931Z,16.20
2022-11-07T11:21:05.743Z,16.10
2022-11-07T11:23:36.919Z,16.10
2022-11-07T11:26:08.377Z,16.10
2022-11-07T11:28:44.313Z,16.10
2022-11-07T11:31:19.876Z,16.10
2022-11-07T11:33:54.913Z,16.10
2022-11-07T11:36:30.597Z,16.10
2022-11-07T11:38:59.319Z,16.10
2022-11-07T11:41:36.167Z,16.10
2022-11-07T11:44:14.215Z,16.10
2022-11-07T11:46:50.604Z,16.10
2022-11-07T11:49:23.943Z,16.10
2022-11-07T11:51:58.876Z,16.10
2022-11-07T11:54:25.570Z,16.20
2022-11-07T11:57:09.740Z,16.20
2022-11-07T11:59:50.072Z,16.20
2022-11-07T12:02:41.088Z,16.20
2022-11-07T12:05:45.018Z,16.20
2022-11-07T12:08:49.293Z,16.20
2022-11-07T12:11:27.824Z,16.20
2022-11-07T12:14:16.146Z,16.20
2022-11-07T12:16:49.942Z,16.20
2022-11-07T12:19:35.731Z,16.20
2022-11-07T12:22:21.215Z,16.20
2022-11-07T12:25:00.352Z,16.20
2022-11-07T12:28:02.861Z,16.20
2022-11-07T12:30:57.583Z,16.20
2022-11-07T12:33:38.213Z,16.20
2022-11-07T12:36:20.174Z,16.20
2022-11-07T12:38:58.884Z,16.20
2022-11-07T12:41:45.524Z,16.20
2022-11-07T12:44:27.115Z,16.20
2022-11-07T12:46:59.987Z,16.20
2022-11-07T12:49:45.079Z,16.20
2022-11-07T12:52:20.561Z,16.20
2022-11-07T12:54:54.840Z,16.20
2022-11-07T12:57:26.974Z,16.20
2022-11-07T13:00:07.713Z,16.20
2022-11-07T13:02:53.268Z,16.20
2022-11-07T13:05:48.793Z,16.20
2022-11-07T13:08:36.889Z,16.20
2022-11-07T13:11:24.323Z,16.20
2022-11-07T13:14:12.645Z,16.20
2022-11-07T13:16:50.048Z,16.20
2022-11-07T13:19:31.320Z,16.20
2022-11-07T13:22:21.275Z,16.20
2022-11-07T13:25:09.406Z,16.20
2022-11-07T13:27:40.393Z,16.20
2022-11-07T13:30:19.867Z,16.20
2022-11-07T13:32:48.915Z,16.20
2022-11-07T13:35:30.171Z,16.20
2022-11-07T13:38:17.416Z,16.20
2022-11-07T13:41:02.186Z,16.20
2022-11-07T13:44:00.206Z,16.20
2022-11-07T13:46:42.779Z,16.20
2022-11-07T13:49:20.309Z,16.20
2022-11-07T13:51:51.480Z,16.20
2022-11-07T13:54:30.940Z,16.20
2022-11-07T13:57:17.914Z,16.20
2022-11-07T14:00:01.843Z,16.20
2022-11-07T14:02:31.758Z,16.10
2022-11-07T14:05:20.028Z,16.10
2022-11-07T14:07:49.267Z,16.10
2022-11-07T14:10:38.868Z,16.10
2022-11-07T14:13:12.478Z,16.10
2022-11-07T14:15:48.073Z,16.10
2022-11-07T14:18:16.622Z,16.10
2022-11-07T14:20:55.262Z,16.10
2022-11-07T14:23:25.839Z,16.10
2022-11-07T14:25:58.654Z,16.10
2022-11-07T14:28:38.994Z,16.10
2022-11-07T14:31:08.121Z,16.10
2022-11-07T14:33:34.742Z,16.10
2022-11-07T14:36:06.160Z,16.10
2022-11-07T14:38:32.767Z,16.20
2022-11-07T14:41:01.922Z,16.20
2022-11-07T14:43:30.784Z,16.20
2022-11-07T14:46:18.372Z,16.10
2022-11-07T14:48:45.904Z,16.10
2022-11-07T14:51:15.902Z,16.10
2022-11-07T14:54:10.760Z,16.10
2022-11-07T14:56:45.245Z,16.10
2022-11-07T14:59:14.241Z,16.10
2022-11-07T15:01:58.597Z,16.10
2022-11-07T15:04:30.723Z,16.10
2022-11-07T15:06:57.443Z,16.10
2022-11-07T15:09:33.635Z,16.10
2022-11-07T15:12:01.444Z,16.10
2022-11-07T15:14:34.235Z,16.00
2022-11-07T15:17:04.242Z,16.10
2022-11-07T15:19:33.294Z,16.10
2022-11-07T15:22:03.088Z,16.10
2022-11-07T15:24:32.973Z,16.10
2022-11-07T15:27:02.555Z,16.10
2022-11-07T15:29:35.790Z,16.00
2022-11-07T15:32:22.654Z,16.10
2022-11-07T15:35:12.139Z,16.00
2022-11-07T15:37:38.181Z,16.00
2022-11-07T15:40:17.036Z,16.10
2022-11-07T15:42:43.629Z,16.10
2022-11-07T15:45:10.822Z,16.10
2022-11-07T15:47:37.824Z,16.10
2022-11-07T15:50:13.637Z,16.10
2022-11-07T15:52:40.331Z,16.10
2022-11-07T15:55:12.233Z,16.20
2022-11-07T15:57:39.317Z,16.10
2022-11-07T16:00:06.684Z,16.10
2022-11-07T16:02:33.318Z,15.90
2022-11-07T16:05:00.097Z,15.80
2022-11-07T16:07:26.659Z,15.90
2022-11-07T16:09:53.245Z,16.00
2022-11-07T16:12:19.945Z,16.10
2022-11-07T16:14:46.582Z,16.10
2022-11-07T16:17:16.330Z,16.10
2022-11-07T16:19:42.910Z,16.10
2022-11-07T16:22:15.324Z,16.10
2022-11-07T16:24:41.974Z,16.10
2022-11-07T16:27:14.456Z,16.10
2022-11-07T16:29:41.748Z,16.10
2022-11-07T16:32:15.108Z,16.10
2022-11-07T16:34:44.066Z,16.10
2022-11-07T16:37:12.283Z,16.10
2022-11-07T16:39:38.824Z,16.10
2022-11-07T16:42:05.451Z,16.10
2022-11-07T16:44:32.033Z,16.20
2022-11-07T16:46:58.977Z,16.20
2022-11-07T16:49:32.303Z,16.10
2022-11-07T16:51:59.141Z,16.10
2022-11-07T16:54:26.055Z,16.10
2022-11-07T16:56:53.006Z,16.10
2022-11-07T16:59:22.392Z,16.20
2022-11-07T17:01:50.561Z,16.10
2022-11-07T17:04:17.563Z,16.10
2022-11-07T17:06:48.008Z,16.20
2022-11-07T17:09:20.253Z,16.20
2022-11-07T17:11:47.169Z,16.20
2022-11-07T17:14:13.794Z,16.10
2022-11-07T17:16:43.871Z,16.20
2022-11-07T17:19:12.159Z,16.20
2022-11-07T17:21:43.675Z,16.10
2022-11-07T17:24:10.485Z,16.10
2022-11-07T17:26:38.711Z,16.10
2022-11-07T17:29:07.321Z,16.10
2022-11-07T17:31:34.048Z,16.10
2022-11-07T17:34:00.900Z,16.10
2022-11-07T17:36:48.308Z,16.10
2022-11-07T17:39:21.518Z,16.10
2022-11-07T17:41:50.022Z,16.10
2022-11-07T17:44:17.857Z,16.20
2022-11-07T17:46:47.227Z,16.20
2022-11-07T17:49:19.168Z,16.20
2022-11-07T17:51:46.118Z,16.20
2022-11-07T17:54:14.373Z,16.20
2022-11-07T17:56:42.047Z,16.20
2022-11-07T17:59:13.035Z,16.20
2022-11-07T18:01:40.461Z,16.20
2022-11-07T18:04:08.689Z,16.20
2022-11-07T18:06:37.371Z,16.20
2022-11-07T18:09:06.119Z,16.20
2022-11-07T18:11:33.897Z,16.20
2022-11-07T18:14:00.821Z,16.20
2022-11-07T18:16:30.412Z,16.20
2022-11-07T18:19:01.582Z,16.20
2022-11-07T18:21:29.077Z,16.20
2022-11-07T18:23:56.312Z,16.20
2022-11-07T18:26:31.226Z,16.20
2022-11-07T18:29:02.129Z,16.20
2022-11-07T18:31:28.780Z,16.20
2022-11-07T18:33:57.820Z,16.20
2022-11-07T18:36:24.673Z,16.20
2022-11-07T18:38:51.205Z,16.20
2022-11-07T18:41:20.969Z,16.20
2022-11-07T18:43:48.169Z,16.20
2022-11-07T18:46:17.439Z,16.20
2022-11-07T18:48:44.022Z,16.20
2022-11-07T18:51:16.332Z,16.20
2022-11-07T18:53:43.813Z,16.20
2022-11-07T18:56:12.287Z,16.20
2022-11-07T18:58:41.147Z,16.20
2022-11-07T19:01:11.020Z,16.10
2022-11-07T19:03:38.236Z,16.10
2022-11-07T19:06:06.728Z,16.20
2022-11-07T19:08:36.422Z,16.10
2022-11-07T19:11:06.095Z,16.10
2022-11-07T19:13:39.234Z,16.20
2022-11-07T19:16:07.708Z,16.10
2022-11-07T19:18:34.802Z,16.10
2022-11-07T19:21:01.433Z,16.10
2022-11-07T19:23:28.000Z,16.20
2022-11-07T19:25:55.361Z,16.20
2022-11-07T19:28:22.228Z,16.20
2022-11-07T19:30:49.104Z,16.20
2022-11-07T19:33:22.059Z,16.20
2022-11-07T19:35:59.151Z,16.20
2022-11-07T19:38:25.699Z,16.10
2022-11-07T19:40:52.277Z,16.10
2022-11-07T19:43:18.986Z,16.10
2022-11-07T19:45:48.110Z,16.10
2022-11-07T19:48:16.486Z,16.20
2022-11-07T19:50:43.292Z,16.20
2022-11-07T19:53:10.896Z,16.20
2022-11-07T19:55:38.361Z,16.10
2022-11-07T19:58:04.940Z,16.10
2022-11-07T20:00:31.576Z,16.10
2022-11-07T20:02:58.537Z,16.10
2022-11-07T20:05:25.233Z,16.10
2022-11-07T20:07:59.353Z,16.10
2022-11-07T20:10:27.877Z,16.10
2022-11-07T20:12:55.484Z,16.10
2022-11-07T20:15:22.120Z,16.20
2022-11-07T20:17:48.697Z,16.20
2022-11-07T20:20:15.308Z,16.10
2022-11-07T20:22:47.672Z,16.10
2022-11-07T20:25:14.868Z,16.10
2022-11-07T20:27:41.891Z,16.10
2022-11-07T20:30:09.527Z,16.10
2022-11-07T20:32:36.203Z,16.10
2022-11-07T20:35:02.791Z,16.10
2022-11-07T20:37:29.333Z,16.10
2022-11-07T20:39:55.933Z,16.10
2022-11-07T20:42:22.531Z,16.10
2022-11-07T20:44:50.892Z,16.10
2022-11-07T20:47:18.037Z,16.20
2022-11-07T20:49:44.656Z,16.20
2022-11-07T20:52:11.280Z,16.20
2022-11-07T20:54:37.888Z,16.20
2022-11-07T20:57:04.913Z,16.20
2022-11-07T20:59:32.049Z,16.20
2022-11-07T21:02:03.155Z,16.20
2022-11-07T21:04:44.598Z,16.20
2022-11-07T21:07:19.519Z,16.10
2022-11-07T21:09:46.555Z,16.20
2022-11-07T21:12:13.980Z,16.20
2022-11-07T21:14:42.068Z,16.20
2022-11-07T21:17:09.515Z,16.20
2022-11-07T21:19:36.165Z,16.20
2022-11-07T21:22:03.949Z,16.10
2022-11-07T21:24:30.891Z,16.10
2022-11-07T21:26:57.839Z,16.10
2022-11-07T21:29:29.235Z,16.10
2022-11-07T21:31:56.751Z,16.10
2022-11-07T21:34:23.610Z,16.10
2022-11-07T21:36:50.224Z,16.10
2022-11-07T21:39:17.799Z,16.10
2022-11-07T21:41:44.405Z,16.10
2022-11-07T21:44:12.143Z,16.10
2022-11-07T21:46:38.927Z,16.10
2022-11-07T21:49:06.213Z,16.10
2022-11-07T21:51:34.564Z,16.20
2022-11-07T21:54:03.467Z,16.20
2022-11-07T21:56:38.309Z,16.10
2022-11-07T21:59:10.589Z,16.10
2022-11-07T22:01:38.240Z,16.10
2022-11-07T22:04:09.349Z,16.10
2022-11-07T22:06:38.890Z,16.10
2022-11-07T22:09:07.620Z,16.10
2022-11-07T22:11:34.474Z,16.10
2022-11-07T22:14:02.015Z,16.10
2022-11-07T22:16:28.652Z,16.10
2022-11-07T22:18:55.374Z,16.10
2022-11-07T22:21:23.290Z,16.10
2022-11-07T22:23:50.779Z,16.10
2022-11-07T22:26:22.670Z,16.10
2022-11-07T22:28:49.927Z,16.10
2022-11-07T22:31:19.259Z,16.10
2022-11-07T22:33:46.320Z,16.10
2022-11-07T22:36:13.730Z,16.10
2022-11-07T22:38:41.191Z,16.10
2022-11-07T22:41:11.364Z,16.10
2022-11-07T22:43:38.009Z,16.10
2022-11-07T22:46:07.676Z,16.10
2022-11-07T22:48:34.240Z,16.10
2022-11-07T22:51:02.608Z,16.10
2022-11-07T22:53:29.471Z,16.10
2022-11-07T22:55:56.058Z,16.10
2022-11-07T22:58:22.875Z,16.10
2022-11-07T23:00:49.425Z,16.10
2022-11-07T23:03:16.008Z,16.10
2022-11-07T23:05:42.640Z,16.10
2022-11-07T23:08:09.195Z,16.10
2022-11-07T23:10:35.765Z,16.10
2022-11-07T23:13:04.610Z,16.10
2022-11-07T23:15:32.405Z,16.10
2022-11-07T23:17:59.109Z,16.10
2022-11-07T23:20:44.307Z,16.10
2022-11-07T23:23:10.828Z,16.10
2022-11-07T23:25:37.412Z,16.10
2022-11-07T23:28:07.326Z,16.10
2022-11-07T23:30:37.067Z,16.10
2022-11-07T23:33:03.617Z,16.10
2022-11-07T23:35:31.889Z,16.10
2022-11-07T23:37:58.403Z,16.00
2022-11-07T23:40:24.959Z,16.00
2022-11-07T23:42:51.568Z,16.00
2022-11-07T23:45:36.843Z,16.00
2022-11-07T23:48:22.222Z,16.00
2022-11-07T23:51:03.992Z,16.00
2022-11-07T23:53:53.711Z,16.10
2022-11-07T23:56:22.311Z,16.00
2022-11-07T23:59:07.551Z,16.00
